Las Vegas, Nevada
Traffic Map
Current Weather Conditions
Las Vegas, Nevada
Few Clouds
Few Clouds
65°
Feels Like: 65°
Wind Chill: 65° Ceiling: Unl
Heat Index: 65° Visibility: 10mi
Dew Point: 39° Wind: 3mph
Humidity: 39% Direction: 220° (SW)
Pressure: 29.98in Gusts: 0mph
Raw Report DataKLAS 251256Z 22003KT 10SM FEW250 18/04 A2998 RMK AO2 SLP131 T01830039
Traffic Incident Summary
Active as of:
Severity:
Category:
InformationThere was an issue retrieving the traffic information for this location. Please try a different location or try again shortly.
Advertisements
Track Severe Weather on mobile